createdAt,value
2023-02-17T00:01:28.334Z,0.36
2023-02-17T00:03:59.171Z,0.33
2023-02-17T00:06:33.690Z,0.42
2023-02-17T00:09:05.982Z,0.46
2023-02-17T00:11:40.120Z,0.57
2023-02-17T00:14:21.518Z,0.51
2023-02-17T00:16:54.456Z,0.61
2023-02-17T00:19:28.205Z,0.63
2023-02-17T00:21:59.943Z,0.64
2023-02-17T00:24:37.824Z,0.74
2023-02-17T00:27:12.429Z,0.67
2023-02-17T00:29:45.188Z,0.62
2023-02-17T00:32:18.272Z,0.58
2023-02-17T00:34:51.580Z,0.52
2023-02-17T00:37:22.086Z,0.50
2023-02-17T00:39:53.724Z,0.48
2023-02-17T00:42:27.470Z,0.62
2023-02-17T00:45:02.871Z,0.58
2023-02-17T00:47:33.446Z,0.58
2023-02-17T00:50:06.541Z,0.73
2023-02-17T00:52:37.102Z,0.74
2023-02-17T00:55:12.174Z,0.69
2023-02-17T00:57:46.678Z,0.73
2023-02-17T01:00:18.657Z,0.68
2023-02-17T01:02:49.976Z,0.70
2023-02-17T01:05:20.804Z,0.64
2023-02-17T01:07:51.670Z,0.61
2023-02-17T01:10:24.614Z,0.67
2023-02-17T01:13:01.929Z,0.71
2023-02-17T01:15:41.954Z,0.78
2023-02-17T01:18:16.588Z,0.81
2023-02-17T01:20:50.240Z,0.79
2023-02-17T01:23:22.876Z,0.84
2023-02-17T01:26:03.182Z,0.84
2023-02-17T01:28:38.759Z,0.81
2023-02-17T01:31:16.609Z,0.76
2023-02-17T01:33:48.850Z,0.77
2023-02-17T01:36:25.408Z,0.77
2023-02-17T01:38:58.699Z,0.81
2023-02-17T01:41:37.341Z,0.87
2023-02-17T01:44:21.160Z,0.86
2023-02-17T01:46:57.302Z,0.76
2023-02-17T01:49:40.170Z,0.74
2023-02-17T01:52:15.028Z,0.72
2023-02-17T01:54:49.120Z,0.72
2023-02-17T01:57:24.359Z,0.71
2023-02-17T01:59:58.276Z,0.73
2023-02-17T02:02:30.842Z,0.72
2023-02-17T02:05:02.290Z,0.71
2023-02-17T02:07:37.961Z,0.70
2023-02-17T02:10:10.628Z,0.71
2023-02-17T02:12:43.408Z,0.72
2023-02-17T02:15:20.075Z,0.65
2023-02-17T02:18:10.072Z,0.61
2023-02-17T02:21:06.165Z,0.59
2023-02-17T02:24:06.080Z,0.54
2023-02-17T02:27:18.275Z,0.54
2023-02-17T02:30:17.444Z,0.52
2023-02-17T02:33:20.170Z,0.49
2023-02-17T02:35:58.726Z,0.47
2023-02-17T02:38:34.744Z,0.44
2023-02-17T02:41:11.849Z,0.47
2023-02-17T02:43:42.687Z,0.41
2023-02-17T02:46:13.219Z,0.34
2023-02-17T02:48:47.573Z,0.28
2023-02-17T02:51:32.094Z,0.23
2023-02-17T02:54:35.013Z,0.24
2023-02-17T02:57:27.532Z,0.24
2023-02-17T03:00:10.856Z,0.18
2023-02-17T03:02:48.887Z,0.13
2023-02-17T03:05:31.781Z,0.13
2023-02-17T03:08:06.975Z,0.20
2023-02-17T03:10:37.966Z,0.16
2023-02-17T03:13:10.267Z,0.14
2023-02-17T03:15:46.203Z,0.08
2023-02-17T03:18:17.702Z,0.11
2023-02-17T03:20:56.452Z,0.13
2023-02-17T03:23:29.026Z,0.07
2023-02-17T03:25:59.477Z,0.13
2023-02-17T03:28:30.506Z,0.10
2023-02-17T03:31:02.185Z,0.06
2023-02-17T03:33:32.735Z,0.04
2023-02-17T03:36:06.332Z,0.05
2023-02-17T03:38:36.959Z,-0.03
2023-02-17T03:41:07.895Z,-0.06
2023-02-17T03:43:38.603Z,-0.06
2023-02-17T03:46:13.427Z,-0.05
2023-02-17T03:48:44.351Z,-0.03
2023-02-17T03:51:20.899Z,-0.04
2023-02-17T03:53:52.181Z,-0.03
2023-02-17T03:56:25.809Z,-0.07
2023-02-17T03:58:56.458Z,-0.08
2023-02-17T04:01:27.253Z,-0.12
2023-02-17T04:03:57.563Z,-0.18
2023-02-17T04:06:31.584Z,-0.27
2023-02-17T04:09:02.199Z,-0.30
2023-02-17T04:11:33.105Z,-0.30
2023-02-17T04:14:03.792Z,-0.31
2023-02-17T04:16:34.474Z,-0.29
2023-02-17T04:19:05.172Z,-0.32
2023-02-17T04:21:38.610Z,-0.31
2023-02-17T04:24:09.698Z,-0.23
2023-02-17T04:26:40.128Z,-0.18
2023-02-17T04:29:11.104Z,-0.10
2023-02-17T04:31:42.130Z,-0.13
2023-02-17T04:34:13.215Z,-0.07
2023-02-17T04:36:46.988Z,-0.06
2023-02-17T04:39:17.911Z,-0.12
2023-02-17T04:41:48.708Z,-0.11
2023-02-17T04:44:19.357Z,-0.18
2023-02-17T04:46:50.509Z,-0.19
2023-02-17T04:49:20.941Z,-0.24
2023-02-17T04:51:54.782Z,-0.36
2023-02-17T04:54:25.886Z,-0.43
2023-02-17T04:56:56.942Z,-0.51
2023-02-17T04:59:27.845Z,-0.58
2023-02-17T05:01:58.572Z,-0.56
2023-02-17T05:04:29.304Z,-0.53
2023-02-17T05:07:02.687Z,-0.54
2023-02-17T05:09:34.196Z,-0.51
2023-02-17T05:12:06.463Z,-0.49
2023-02-17T05:14:38.050Z,-0.47
2023-02-17T05:17:08.828Z,-0.51
2023-02-17T05:19:39.686Z,-0.51
2023-02-17T05:22:16.242Z,-0.45
2023-02-17T05:24:46.723Z,-0.45
2023-02-17T05:27:17.505Z,-0.43
2023-02-17T05:29:48.205Z,-0.37
2023-02-17T05:32:19.395Z,-0.38
2023-02-17T05:34:50.071Z,-0.35
2023-02-17T05:37:23.621Z,-0.42
2023-02-17T05:39:54.141Z,-0.38
2023-02-17T05:42:29.011Z,-0.41
2023-02-17T05:45:00.207Z,-0.32
2023-02-17T05:47:31.393Z,-0.24
2023-02-17T05:50:02.208Z,-0.22
2023-02-17T05:52:36.327Z,-0.17
2023-02-17T05:55:08.223Z,-0.09
2023-02-17T05:57:38.750Z,-0.03
2023-02-17T06:00:11.137Z,-0.02
2023-02-17T06:02:44.374Z,0.04
2023-02-17T06:05:15.575Z,0.14
2023-02-17T06:07:49.135Z,0.22
2023-02-17T06:10:19.720Z,0.39
2023-02-17T06:12:50.130Z,0.59
2023-02-17T06:15:20.414Z,0.82
2023-02-17T06:17:50.916Z,0.97
2023-02-17T06:20:21.564Z,1.11
2023-02-17T06:22:55.238Z,1.10
2023-02-17T06:25:26.292Z,1.07
2023-02-17T06:27:57.933Z,1.08
2023-02-17T06:30:28.337Z,1.14
2023-02-17T06:33:00.147Z,1.22
2023-02-17T06:35:44.292Z,1.32
2023-02-17T06:38:25.092Z,1.53
2023-02-17T06:40:59.840Z,1.55
2023-02-17T06:43:31.718Z,1.55
2023-02-17T06:46:13.772Z,1.58
2023-02-17T06:48:51.636Z,1.65
2023-02-17T06:51:25.950Z,1.77
2023-02-17T06:54:00.155Z,1.83
2023-02-17T06:56:30.850Z,1.84
2023-02-17T06:59:01.536Z,1.89
2023-02-17T07:01:32.057Z,1.90
2023-02-17T07:04:02.737Z,1.95
2023-02-17T07:06:33.463Z,2.06
2023-02-17T07:09:07.960Z,2.06
2023-02-17T07:11:38.724Z,2.17
2023-02-17T07:14:09.390Z,2.25
2023-02-17T07:16:41.488Z,2.28
2023-02-17T07:19:14.645Z,2.35
2023-02-17T07:21:50.658Z,2.40
2023-02-17T07:24:24.238Z,2.40
2023-02-17T07:26:56.466Z,2.51
2023-02-17T07:29:27.175Z,2.45
2023-02-17T07:31:58.928Z,2.45
2023-02-17T07:34:31.431Z,2.42
2023-02-17T07:37:02.218Z,2.38
2023-02-17T07:39:37.871Z,2.37
2023-02-17T07:42:10.481Z,2.43
2023-02-17T07:44:43.476Z,2.40
2023-02-17T07:47:14.657Z,2.38
2023-02-17T07:49:46.939Z,2.44
2023-02-17T07:52:21.545Z,2.53
2023-02-17T07:54:56.660Z,2.64
2023-02-17T07:57:27.743Z,2.78
2023-02-17T07:59:58.385Z,2.92
2023-02-17T08:02:30.337Z,2.98
2023-02-17T08:05:01.356Z,2.99
2023-02-17T08:07:33.767Z,3.00
2023-02-17T08:10:19.849Z,2.96
2023-02-17T08:13:06.280Z,3.00
2023-02-17T08:15:39.207Z,3.05
2023-02-17T08:18:09.999Z,3.11
2023-02-17T08:20:40.726Z,3.18
2023-02-17T08:23:12.136Z,3.25
2023-02-17T08:25:45.297Z,3.27
2023-02-17T08:28:20.636Z,3.37
2023-02-17T08:30:52.337Z,3.43
2023-02-17T08:33:23.724Z,3.52
2023-02-17T08:35:54.415Z,3.64
2023-02-17T08:38:27.844Z,3.66
2023-02-17T08:41:03.301Z,3.70
2023-02-17T08:43:34.168Z,3.69
2023-02-17T08:46:05.949Z,3.72
2023-02-17T08:48:37.109Z,3.84
2023-02-17T08:51:09.100Z,3.96
2023-02-17T08:53:39.592Z,4.09
2023-02-17T08:56:13.308Z,4.24
2023-02-17T08:58:45.624Z,4.38
2023-02-17T09:01:19.227Z,4.46
2023-02-17T09:03:51.004Z,4.55
2023-02-17T09:06:22.902Z,4.58
2023-02-17T09:08:54.997Z,4.72
2023-02-17T09:11:28.581Z,4.87
2023-02-17T09:13:59.955Z,5.04
2023-02-17T09:16:31.672Z,5.12
2023-02-17T09:19:02.532Z,5.24
2023-02-17T09:21:33.950Z,5.43
2023-02-17T09:24:04.917Z,5.68
2023-02-17T09:26:41.220Z,5.94
2023-02-17T09:29:12.586Z,6.27
2023-02-17T09:31:46.292Z,6.73
2023-02-17T09:34:19.847Z,6.94
2023-02-17T09:36:50.740Z,6.89
2023-02-17T09:39:21.487Z,6.85
2023-02-17T09:41:56.957Z,7.04
2023-02-17T09:44:29.998Z,7.08
2023-02-17T09:47:07.674Z,7.04
2023-02-17T09:49:43.479Z,6.99
2023-02-17T09:52:20.536Z,7.00
2023-02-17T09:55:02.174Z,6.99
2023-02-17T09:57:39.393Z,7.05
2023-02-17T10:00:15.097Z,7.10
2023-02-17T10:02:53.452Z,7.24
2023-02-17T10:05:38.775Z,7.50
2023-02-17T10:08:14.627Z,7.69
2023-02-17T10:10:55.158Z,7.90
2023-02-17T10:13:34.768Z,8.11
2023-02-17T10:16:21.435Z,8.38
2023-02-17T10:18:57.991Z,8.65
2023-02-17T10:21:32.871Z,8.78
2023-02-17T10:24:03.860Z,8.89
2023-02-17T10:26:51.693Z,8.98
2023-02-17T10:29:39.811Z,9.09
2023-02-17T10:32:26.190Z,9.18
2023-02-17T10:35:18.120Z,9.28
2023-02-17T10:37:53.279Z,9.35
2023-02-17T10:40:28.640Z,9.46
2023-02-17T10:43:08.010Z,9.57
2023-02-17T10:45:50.608Z,9.74
2023-02-17T10:48:24.696Z,9.92
2023-02-17T10:50:58.346Z,10.03
2023-02-17T10:53:36.774Z,10.08
2023-02-17T10:56:14.830Z,10.16
2023-02-17T10:58:57.049Z,10.34
2023-02-17T11:01:33.967Z,10.35
2023-02-17T11:04:06.796Z,10.55
2023-02-17T11:06:45.483Z,10.92
2023-02-17T11:09:29.136Z,11.26
2023-02-17T11:12:04.171Z,11.35
2023-02-17T11:14:36.957Z,11.43
2023-02-17T11:17:21.507Z,11.60
2023-02-17T11:20:00.912Z,11.68
2023-02-17T11:22:39.282Z,11.72
2023-02-17T11:25:24.806Z,11.60
2023-02-17T11:27:58.785Z,11.56
2023-02-17T11:30:38.882Z,11.45
2023-02-17T11:36:25.197Z,11.33
2023-02-17T11:38:55.891Z,11.41
2023-02-17T11:41:27.317Z,11.52
2023-02-17T11:44:00.422Z,11.53
2023-02-17T11:46:38.422Z,11.39
2023-02-17T11:49:38.879Z,11.42
2023-02-17T11:52:30.880Z,11.34
2023-02-17T11:55:17.388Z,11.31
2023-02-17T11:57:56.042Z,11.32
2023-02-17T12:00:34.456Z,11.43
2023-02-17T12:03:28.654Z,11.43
2023-02-17T12:06:11.910Z,11.61
2023-02-17T12:09:08.430Z,11.67
2023-02-17T12:11:48.844Z,11.75
2023-02-17T12:14:37.937Z,11.60
2023-02-17T12:17:17.690Z,11.54
2023-02-17T12:20:00.481Z,11.41
2023-02-17T12:22:39.030Z,11.65
2023-02-17T12:25:29.352Z,11.60
2023-02-17T12:28:11.515Z,11.58
2023-02-17T12:30:55.969Z,11.64
2023-02-17T12:33:53.926Z,11.65
2023-02-17T12:36:28.969Z,11.75
2023-02-17T12:39:03.900Z,11.78
2023-02-17T12:41:43.656Z,11.73
2023-02-17T12:44:18.833Z,11.62
2023-02-17T12:46:53.427Z,11.63
2023-02-17T12:49:29.018Z,11.79
2023-02-17T12:52:04.665Z,11.74
2023-02-17T12:54:42.263Z,11.60
2023-02-17T12:57:21.258Z,11.64
2023-02-17T12:59:54.420Z,11.52
2023-02-17T13:02:26.853Z,11.64
2023-02-17T13:04:59.554Z,11.60
2023-02-17T13:07:51.649Z,11.56
2023-02-17T13:10:30.949Z,11.53
2023-02-17T13:13:08.358Z,11.47
2023-02-17T13:15:43.628Z,11.47
2023-02-17T13:18:30.206Z,11.47
2023-02-17T13:21:03.714Z,11.53
2023-02-17T13:23:40.763Z,11.57
2023-02-17T13:26:39.279Z,11.63
2023-02-17T13:29:37.545Z,11.66
2023-02-17T13:32:11.057Z,11.70
2023-02-17T13:34:46.914Z,11.61
2023-02-17T13:37:28.584Z,11.65
2023-02-17T13:39:59.451Z,11.59
2023-02-17T13:42:42.064Z,11.65
2023-02-17T13:45:30.406Z,11.60
2023-02-17T13:48:03.915Z,11.67
2023-02-17T13:50:37.901Z,11.68
2023-02-17T13:53:25.897Z,11.68
2023-02-17T13:55:58.448Z,11.76
2023-02-17T13:58:34.616Z,11.77
2023-02-17T14:01:11.036Z,11.75
2023-02-17T14:03:48.702Z,11.71
2023-02-17T14:06:29.157Z,11.69
2023-02-17T14:08:59.875Z,11.66
2023-02-17T14:11:33.101Z,11.60
2023-02-17T14:14:04.394Z,11.51
2023-02-17T14:16:39.523Z,11.57
2023-02-17T14:19:12.718Z,11.45
2023-02-17T14:21:45.453Z,11.46
2023-02-17T14:24:30.026Z,11.53
2023-02-17T14:27:03.735Z,11.50
2023-02-17T14:29:44.908Z,11.52
2023-02-17T14:32:38.595Z,11.52
2023-02-17T14:35:24.392Z,11.50
2023-02-17T14:37:55.429Z,11.47
2023-02-17T14:40:28.606Z,11.50
2023-02-17T14:42:59.058Z,11.50
2023-02-17T14:45:41.839Z,11.51
2023-02-17T14:48:15.391Z,11.50
2023-02-17T14:50:47.044Z,11.51
2023-02-17T14:53:22.851Z,11.47
2023-02-17T14:55:57.112Z,11.44
2023-02-17T14:58:29.328Z,11.39
2023-02-17T15:01:00.580Z,11.37
2023-02-17T15:03:33.819Z,11.40
2023-02-17T15:09:17.131Z,11.27
2023-02-17T15:11:49.425Z,11.21
2023-02-17T15:14:21.547Z,11.16
2023-02-17T15:16:52.332Z,11.11
2023-02-17T15:19:27.321Z,11.08
2023-02-17T15:22:01.555Z,11.07
2023-02-17T15:24:33.576Z,10.99
2023-02-17T15:27:04.561Z,11.03
2023-02-17T15:29:36.851Z,10.95
2023-02-17T15:32:14.420Z,10.90
2023-02-17T15:34:48.498Z,10.83
2023-02-17T15:37:19.673Z,10.78
2023-02-17T15:39:50.192Z,10.70
2023-02-17T15:42:21.949Z,10.74
2023-02-17T15:44:53.972Z,10.55
2023-02-17T15:47:24.815Z,10.48
2023-02-17T15:49:58.310Z,10.50
2023-02-17T15:52:29.033Z,10.43
2023-02-17T15:55:00.833Z,10.45
2023-02-17T15:57:31.713Z,10.42
2023-02-17T16:00:02.281Z,10.39
2023-02-17T16:02:37.558Z,10.36
2023-02-17T16:05:14.272Z,10.29
2023-02-17T16:07:45.564Z,10.28
2023-02-17T16:10:19.003Z,10.19
2023-02-17T16:12:50.516Z,10.12
2023-02-17T16:15:23.835Z,10.10
2023-02-17T16:17:56.241Z,10.06
2023-02-17T16:20:34.697Z,10.07
2023-02-17T16:23:06.024Z,9.99
2023-02-17T16:25:36.899Z,10.03
2023-02-17T16:28:09.623Z,9.98
2023-02-17T16:30:40.708Z,9.96
2023-02-17T16:33:13.740Z,9.98
2023-02-17T16:35:47.805Z,10.08
2023-02-17T16:38:23.535Z,9.93
2023-02-17T16:40:56.419Z,9.87
2023-02-17T16:43:31.080Z,9.88
2023-02-17T16:46:04.652Z,9.83
2023-02-17T16:48:39.142Z,9.81
2023-02-17T16:51:13.848Z,9.83
2023-02-17T16:53:44.620Z,9.74
2023-02-17T16:56:23.681Z,9.88
2023-02-17T16:58:54.648Z,9.90
2023-02-17T17:01:25.050Z,9.90
2023-02-17T17:03:56.028Z,9.76
2023-02-17T17:06:33.116Z,9.78
2023-02-17T17:09:03.888Z,9.77
2023-02-17T17:11:35.229Z,9.61
2023-02-17T17:14:05.930Z,9.57
2023-02-17T17:16:38.372Z,9.57
2023-02-17T17:19:09.787Z,9.57
2023-02-17T17:21:43.166Z,9.58
2023-02-17T17:24:13.635Z,9.60
2023-02-17T17:26:47.675Z,9.61
2023-02-17T17:29:20.813Z,9.62
2023-02-17T17:31:52.293Z,9.58
2023-02-17T17:34:23.080Z,9.48
2023-02-17T17:36:56.854Z,9.55
2023-02-17T17:39:28.925Z,9.48
2023-02-17T17:41:59.844Z,9.43
2023-02-17T17:44:30.573Z,9.43
2023-02-17T17:47:02.016Z,9.44
2023-02-17T17:49:32.920Z,9.34
2023-02-17T17:52:06.481Z,9.38
2023-02-17T17:54:37.519Z,9.32
2023-02-17T17:57:10.794Z,9.32
2023-02-17T17:59:44.406Z,9.23
2023-02-17T18:02:15.367Z,9.26
2023-02-17T18:04:46.033Z,9.14
2023-02-17T18:07:20.185Z,9.08
2023-02-17T18:09:50.944Z,8.99
2023-02-17T18:12:22.896Z,8.94
2023-02-17T18:15:02.410Z,8.90
2023-02-17T18:17:38.050Z,8.85
2023-02-17T18:20:11.041Z,8.79
2023-02-17T18:22:45.193Z,8.83
2023-02-17T18:25:15.798Z,8.71
2023-02-17T18:27:51.458Z,8.71
2023-02-17T18:30:24.457Z,8.66
2023-02-17T18:32:55.415Z,8.75
2023-02-17T18:35:26.976Z,8.79
2023-02-17T18:38:00.189Z,8.93
2023-02-17T18:40:31.331Z,8.97
2023-02-17T18:43:02.363Z,9.03
2023-02-17T18:45:36.116Z,9.02
2023-02-17T18:48:06.353Z,9.08
2023-02-17T18:50:37.014Z,9.03
2023-02-17T18:53:11.079Z,9.05
2023-02-17T18:55:42.304Z,8.97
2023-02-17T18:58:13.685Z,8.99
2023-02-17T19:00:47.562Z,9.04
2023-02-17T19:03:18.282Z,9.05
2023-02-17T19:05:48.489Z,9.01
2023-02-17T19:08:21.896Z,9.03
2023-02-17T19:10:54.467Z,8.98
2023-02-17T19:13:24.873Z,9.05
2023-02-17T19:15:55.745Z,9.09
2023-02-17T19:18:26.176Z,9.01
2023-02-17T19:21:00.823Z,9.07
2023-02-17T19:23:34.315Z,9.00
2023-02-17T19:26:07.304Z,9.09
2023-02-17T19:28:40.879Z,9.03
2023-02-17T19:31:12.856Z,8.99
2023-02-17T19:33:44.931Z,9.03
2023-02-17T19:36:21.785Z,8.99
2023-02-17T19:38:55.750Z,9.02
2023-02-17T19:41:26.846Z,9.07
2023-02-17T19:43:57.155Z,9.03
2023-02-17T19:46:31.582Z,9.03
2023-02-17T19:49:02.285Z,8.95
2023-02-17T19:51:33.779Z,9.08
2023-02-17T19:54:07.359Z,9.03
2023-02-17T19:56:39.205Z,9.04
2023-02-17T19:59:09.654Z,8.97
2023-02-17T20:01:42.361Z,9.08
2023-02-17T20:04:14.310Z,9.05
2023-02-17T20:06:47.736Z,9.06
2023-02-17T20:09:23.714Z,9.03
2023-02-17T20:11:55.305Z,8.96
2023-02-17T20:14:26.037Z,8.97
2023-02-17T20:16:56.721Z,8.88
2023-02-17T20:19:27.444Z,8.80
2023-02-17T20:21:58.310Z,8.75
2023-02-17T20:24:33.490Z,8.80
2023-02-17T20:27:04.286Z,8.86
2023-02-17T20:29:36.631Z,8.97
2023-02-17T20:32:07.572Z,8.96
2023-02-17T20:34:40.830Z,8.91
2023-02-17T20:37:13.537Z,8.90
2023-02-17T20:39:47.202Z,8.92
2023-02-17T20:42:17.939Z,9.03
2023-02-17T20:44:50.706Z,9.10
2023-02-17T20:47:21.303Z,9.17
2023-02-17T20:49:54.670Z,9.15
2023-02-17T20:52:25.611Z,9.23
2023-02-17T20:54:59.325Z,9.17
2023-02-17T20:57:30.410Z,9.21
2023-02-17T21:00:01.311Z,9.24
2023-02-17T21:02:31.986Z,9.32
2023-02-17T21:05:02.547Z,9.26
2023-02-17T21:07:33.042Z,9.34
2023-02-17T21:10:10.463Z,9.34
2023-02-17T21:12:40.851Z,9.39
2023-02-17T21:15:13.724Z,9.32
2023-02-17T21:17:44.263Z,9.39
2023-02-17T21:20:17.715Z,9.39
2023-02-17T21:22:51.000Z,9.45
2023-02-17T21:25:24.549Z,9.34
2023-02-17T21:27:54.989Z,9.37
2023-02-17T21:30:28.011Z,9.40
2023-02-17T21:32:58.729Z,9.37
2023-02-17T21:35:29.784Z,9.33
2023-02-17T21:38:00.395Z,9.47
2023-02-17T21:40:34.201Z,9.48
2023-02-17T21:43:16.514Z,9.53
2023-02-17T21:45:48.116Z,9.54
2023-02-17T21:48:18.897Z,9.47
2023-02-17T21:50:49.564Z,9.45
2023-02-17T21:53:20.226Z,9.43
2023-02-17T21:55:53.920Z,9.40
2023-02-17T21:58:24.150Z,9.43
2023-02-17T22:00:54.484Z,9.45
2023-02-17T22:03:25.209Z,9.38
2023-02-17T22:05:56.029Z,9.34
2023-02-17T22:08:27.369Z,9.39
2023-02-17T22:11:02.674Z,9.32
2023-02-17T22:13:33.075Z,9.30
2023-02-17T22:16:03.806Z,9.29
2023-02-17T22:18:34.259Z,9.31
2023-02-17T22:21:04.984Z,9.46
2023-02-17T22:23:35.881Z,9.39
2023-02-17T22:26:13.664Z,9.39
2023-02-17T22:28:44.773Z,9.33
2023-02-17T22:31:16.816Z,9.37
2023-02-17T22:33:47.974Z,9.22
2023-02-17T22:36:20.418Z,9.13
2023-02-17T22:38:50.894Z,9.10
2023-02-17T22:41:26.687Z,9.07
2023-02-17T22:43:58.323Z,9.12
2023-02-17T22:46:29.645Z,9.04
2023-02-17T22:49:00.758Z,9.03
2023-02-17T22:51:33.465Z,9.00
2023-02-17T22:54:04.733Z,8.92
2023-02-17T22:56:39.157Z,8.87
2023-02-17T22:59:09.564Z,8.86
2023-02-17T23:01:40.725Z,8.95
2023-02-17T23:04:11.430Z,8.97
2023-02-17T23:06:41.913Z,8.88
2023-02-17T23:09:15.311Z,8.84
2023-02-17T23:11:58.565Z,8.84
2023-02-17T23:14:31.939Z,8.84
2023-02-17T23:17:05.095Z,8.82
2023-02-17T23:19:36.014Z,8.78
2023-02-17T23:22:09.470Z,8.78
2023-02-17T23:24:39.998Z,8.77
2023-02-17T23:27:14.498Z,8.82
2023-02-17T23:29:48.232Z,8.74
2023-02-17T23:32:18.844Z,8.74
2023-02-17T23:34:49.367Z,8.78
2023-02-17T23:37:19.654Z,8.78
2023-02-17T23:39:50.120Z,8.78
2023-02-17T23:42:23.498Z,8.65
2023-02-17T23:44:54.051Z,8.69
2023-02-17T23:47:25.305Z,8.66
2023-02-17T23:49:56.036Z,8.64
2023-02-17T23:52:26.483Z,8.67
2023-02-17T23:54:56.960Z,8.64
2023-02-17T23:57:30.504Z,8.64
